createdAt,value
2022-11-11T00:00:07.523Z,14.00
2022-11-11T00:02:56.900Z,14.00
2022-11-11T00:05:44.268Z,14.00
2022-11-11T00:08:33.109Z,14.00
2022-11-11T00:11:19.834Z,14.00
2022-11-11T00:14:06.932Z,14.00
2022-11-11T00:17:11.495Z,14.00
2022-11-11T00:20:18.725Z,14.00
2022-11-11T00:23:23.364Z,14.00
2022-11-11T00:26:37.922Z,14.00
2022-11-11T00:29:21.182Z,14.00
2022-11-11T00:32:24.305Z,14.00
2022-11-11T00:35:29.231Z,13.90
2022-11-11T00:38:37.545Z,13.90
2022-11-11T00:41:27.377Z,13.90
2022-11-11T00:44:14.753Z,13.90
2022-11-11T00:47:30.897Z,13.90
2022-11-11T00:50:36.959Z,13.90
2022-11-11T00:53:27.333Z,13.90
2022-11-11T00:56:14.799Z,13.90
2022-11-11T00:59:03.410Z,13.80
2022-11-11T01:01:50.745Z,13.80
2022-11-11T01:04:37.570Z,13.80
2022-11-11T01:07:25.076Z,13.80
2022-11-11T01:10:13.070Z,13.80
2022-11-11T01:13:12.605Z,13.80
2022-11-11T01:16:03.593Z,13.80
2022-11-11T01:18:52.128Z,13.80
2022-11-11T01:21:39.142Z,13.80
2022-11-11T01:24:26.783Z,13.80
2022-11-11T01:27:13.882Z,13.80
2022-11-11T01:30:00.672Z,13.80
2022-11-11T01:32:49.175Z,13.80
2022-11-11T01:35:40.539Z,13.80
2022-11-11T01:38:27.693Z,13.80
2022-11-11T01:41:36.834Z,13.80
2022-11-11T01:44:45.078Z,13.80
2022-11-11T01:48:26.483Z,13.80
2022-11-11T01:51:03.632Z,13.80
2022-11-11T01:53:55.608Z,13.80
2022-11-11T01:56:45.205Z,13.80
2022-11-11T01:59:33.767Z,13.80
2022-11-11T02:02:26.101Z,13.80
2022-11-11T02:05:33.479Z,13.80
2022-11-11T02:08:33.574Z,13.80
2022-11-11T02:11:43.230Z,13.80
2022-11-11T02:14:39.980Z,13.80
2022-11-11T02:17:30.940Z,13.80
2022-11-11T02:20:22.119Z,13.80
2022-11-11T02:23:13.178Z,13.80
2022-11-11T02:26:05.035Z,13.80
2022-11-11T02:28:53.497Z,13.80
2022-11-11T02:31:40.874Z,13.80
2022-11-11T02:34:32.140Z,13.80
2022-11-11T02:37:22.548Z,13.80
2022-11-11T02:40:10.620Z,13.80
2022-11-11T02:42:58.979Z,13.80
2022-11-11T02:45:46.452Z,13.80
2022-11-11T02:48:34.098Z,13.80
2022-11-11T02:51:21.615Z,13.80
2022-11-11T02:54:08.957Z,13.80
2022-11-11T02:57:18.462Z,13.80
2022-11-11T03:00:08.138Z,13.80
2022-11-11T03:02:55.308Z,13.80
2022-11-11T03:05:42.588Z,13.80
2022-11-11T03:08:29.788Z,13.80
2022-11-11T03:11:28.045Z,13.80
2022-11-11T03:14:15.005Z,13.80
2022-11-11T03:17:20.872Z,13.80
2022-11-11T03:20:26.550Z,13.80
2022-11-11T03:23:15.382Z,13.80
2022-11-11T03:26:02.212Z,13.80
2022-11-11T03:28:49.786Z,13.80
2022-11-11T03:31:37.595Z,13.80
2022-11-11T03:34:25.845Z,13.80
2022-11-11T03:37:31.007Z,13.80
2022-11-11T03:40:18.321Z,13.80
2022-11-11T03:43:05.908Z,13.80
2022-11-11T03:45:53.617Z,13.90
2022-11-11T03:48:40.701Z,13.80
2022-11-11T03:51:29.100Z,13.80
2022-11-11T03:54:15.783Z,13.90
2022-11-11T03:57:19.966Z,13.80
2022-11-11T04:00:14.096Z,13.80
2022-11-11T04:03:24.571Z,13.90
2022-11-11T04:06:29.733Z,13.90
2022-11-11T04:09:35.737Z,13.80
2022-11-11T04:12:23.774Z,13.80
2022-11-11T04:15:28.499Z,13.80
2022-11-11T04:18:15.726Z,13.80
2022-11-11T04:21:19.634Z,13.80
2022-11-11T04:24:27.980Z,13.80
2022-11-11T04:27:17.741Z,13.80
2022-11-11T04:30:03.803Z,13.80
2022-11-11T04:32:50.871Z,13.80
2022-11-11T04:35:37.720Z,13.80
2022-11-11T04:38:41.996Z,13.80
2022-11-11T04:41:53.774Z,13.80
2022-11-11T04:44:54.630Z,13.80
2022-11-11T04:47:55.248Z,13.80
2022-11-11T04:50:44.355Z,13.80
2022-11-11T04:53:31.030Z,13.80
2022-11-11T04:56:35.283Z,13.80
2022-11-11T04:59:22.367Z,13.80
2022-11-11T05:02:27.801Z,13.80
2022-11-11T05:05:14.981Z,13.80
2022-11-11T05:08:19.088Z,13.80
2022-11-11T05:11:06.344Z,13.80
2022-11-11T05:14:11.510Z,13.80
2022-11-11T05:17:17.451Z,13.80
2022-11-11T05:20:24.100Z,13.80
2022-11-11T05:23:11.247Z,13.80
2022-11-11T05:25:57.605Z,13.80
2022-11-11T05:28:44.242Z,13.80
2022-11-11T05:31:31.574Z,13.70
2022-11-11T05:34:18.790Z,13.80
2022-11-11T05:37:06.987Z,13.70
2022-11-11T05:39:54.162Z,13.70
2022-11-11T05:42:49.467Z,13.70
2022-11-11T05:45:39.348Z,13.70
2022-11-11T05:48:26.294Z,13.70
2022-11-11T05:51:28.147Z,13.70
2022-11-11T05:54:16.687Z,13.60
2022-11-11T05:57:03.783Z,13.60
2022-11-11T05:59:50.422Z,13.60
2022-11-11T06:02:38.158Z,13.60
2022-11-11T06:05:24.819Z,13.60
2022-11-11T06:08:20.930Z,13.60
2022-11-11T06:11:09.503Z,13.70
2022-11-11T06:13:57.052Z,13.70
2022-11-11T06:16:43.904Z,13.70
2022-11-11T06:19:30.961Z,13.70
2022-11-11T06:22:38.516Z,13.70
2022-11-11T06:25:43.896Z,13.80
2022-11-11T06:28:32.342Z,13.80
2022-11-11T06:31:20.888Z,13.80
2022-11-11T06:34:07.897Z,13.80
2022-11-11T06:36:54.942Z,13.80
2022-11-11T06:39:41.690Z,13.80
2022-11-11T06:42:28.639Z,13.80
2022-11-11T06:45:17.238Z,13.90
2022-11-11T06:48:04.386Z,13.90
2022-11-11T06:50:51.658Z,13.90
2022-11-11T06:53:38.508Z,13.90
2022-11-11T06:56:25.519Z,13.90
2022-11-11T06:59:12.557Z,13.90
2022-11-11T07:02:00.727Z,14.00
2022-11-11T07:04:47.638Z,14.00
2022-11-11T07:07:34.618Z,14.00
2022-11-11T07:10:21.989Z,14.00
2022-11-11T07:13:09.299Z,14.00
2022-11-11T07:15:56.637Z,14.00
2022-11-11T07:18:44.653Z,14.00
2022-11-11T07:21:31.361Z,14.00
2022-11-11T07:24:18.186Z,14.00
2022-11-11T07:27:05.024Z,14.00
2022-11-11T07:29:52.003Z,14.00
2022-11-11T07:32:45.112Z,14.00
2022-11-11T07:35:33.647Z,14.10
2022-11-11T07:38:20.554Z,14.10
2022-11-11T07:41:07.944Z,14.10
2022-11-11T07:43:54.642Z,14.10
2022-11-11T07:46:41.794Z,14.20
2022-11-11T07:49:29.144Z,14.20
2022-11-11T07:52:17.788Z,14.20
2022-11-11T07:55:05.105Z,14.30
2022-11-11T07:57:53.719Z,14.30
2022-11-11T08:00:40.597Z,14.40
2022-11-11T08:03:27.828Z,14.40
2022-11-11T08:06:14.783Z,14.50
2022-11-11T08:09:03.184Z,14.50
2022-11-11T08:12:07.673Z,14.60
2022-11-11T08:14:54.616Z,14.60
2022-11-11T08:17:41.359Z,14.70
2022-11-11T08:20:28.079Z,14.80
2022-11-11T08:26:29.531Z,14.80
2022-11-11T08:29:16.933Z,14.90
2022-11-11T08:32:03.657Z,14.90
2022-11-11T08:34:50.744Z,15.00
2022-11-11T08:37:37.976Z,15.10
2022-11-11T08:40:24.613Z,15.20
2022-11-11T08:43:13.183Z,15.10
2022-11-11T08:46:00.275Z,15.10
2022-11-11T08:48:47.727Z,15.10
2022-11-11T08:51:41.887Z,15.20
2022-11-11T08:54:30.605Z,15.20
2022-11-11T08:57:17.276Z,15.30
2022-11-11T09:00:07.318Z,15.40
2022-11-11T09:02:54.428Z,15.50
2022-11-11T09:05:42.351Z,15.60
2022-11-11T09:08:29.275Z,15.70
2022-11-11T09:11:16.406Z,15.80
2022-11-11T09:14:03.421Z,15.90
2022-11-11T09:16:51.725Z,15.90
2022-11-11T09:19:38.861Z,16.00
2022-11-11T09:22:25.703Z,16.00
2022-11-11T09:25:12.517Z,16.10
2022-11-11T09:28:01.360Z,16.20
2022-11-11T09:30:48.203Z,16.20
2022-11-11T09:33:36.663Z,16.20
2022-11-11T09:36:23.626Z,16.30
2022-11-11T09:39:10.522Z,16.30
2022-11-11T09:42:06.963Z,16.40
2022-11-11T09:45:17.317Z,16.40
2022-11-11T09:48:17.136Z,16.40
2022-11-11T09:51:10.441Z,16.50
2022-11-11T09:54:03.902Z,16.50
2022-11-11T09:56:50.872Z,16.50
2022-11-11T09:59:45.820Z,16.50
2022-11-11T10:02:40.436Z,16.60
2022-11-11T10:05:34.173Z,16.60
2022-11-11T10:08:26.947Z,16.60
2022-11-11T10:11:18.119Z,16.70
2022-11-11T10:14:04.979Z,16.70
2022-11-11T10:17:03.089Z,16.80
2022-11-11T10:20:03.052Z,16.80
2022-11-11T10:22:52.599Z,16.80
2022-11-11T10:25:47.136Z,16.80
2022-11-11T10:28:38.411Z,16.90
2022-11-11T10:31:27.182Z,16.90
2022-11-11T10:34:16.771Z,16.90
2022-11-11T10:37:04.574Z,17.00
2022-11-11T10:40:03.380Z,17.00
2022-11-11T10:42:52.210Z,17.10
2022-11-11T10:45:46.751Z,17.10
2022-11-11T10:48:44.120Z,17.00
2022-11-11T10:51:39.851Z,17.10
2022-11-11T10:54:32.747Z,17.00
2022-11-11T10:57:25.383Z,17.00
2022-11-11T11:00:15.698Z,17.00
2022-11-11T11:03:12.986Z,17.00
2022-11-11T11:06:04.506Z,17.00
2022-11-11T11:08:55.586Z,17.00
2022-11-11T11:11:49.004Z,16.90
2022-11-11T11:14:40.813Z,17.00
2022-11-11T11:17:36.424Z,17.00
2022-11-11T11:20:23.794Z,17.10
2022-11-11T11:23:10.696Z,17.20
2022-11-11T11:25:57.452Z,17.20
2022-11-11T11:28:57.896Z,17.30
2022-11-11T11:31:47.673Z,17.30
2022-11-11T11:34:50.125Z,17.30
2022-11-11T11:37:51.171Z,17.20
2022-11-11T11:40:50.365Z,17.00
2022-11-11T11:43:39.131Z,17.00
2022-11-11T11:46:30.493Z,16.80
2022-11-11T11:49:27.367Z,16.80
2022-11-11T11:52:22.679Z,16.90
2022-11-11T11:55:16.920Z,16.90
2022-11-11T11:58:21.730Z,17.00
2022-11-11T12:01:14.768Z,17.00
2022-11-11T12:04:43.771Z,17.00
2022-11-11T12:08:06.476Z,17.10
2022-11-11T12:11:00.609Z,17.10
2022-11-11T12:14:06.826Z,17.00
2022-11-11T12:16:59.949Z,17.10
2022-11-11T12:19:56.601Z,17.20
2022-11-11T12:23:12.036Z,17.30
2022-11-11T12:26:09.239Z,17.40
2022-11-11T12:29:19.564Z,17.50
2022-11-11T12:32:26.741Z,17.40
2022-11-11T12:35:34.495Z,17.50
2022-11-11T12:38:42.622Z,17.40
2022-11-11T12:41:46.927Z,17.40
2022-11-11T12:44:46.497Z,17.40
2022-11-11T12:47:40.388Z,17.40
2022-11-11T12:50:32.885Z,17.40
2022-11-11T12:53:29.446Z,17.20
2022-11-11T12:56:26.921Z,17.20
2022-11-11T12:59:26.349Z,17.10
2022-11-11T13:02:33.879Z,16.90
2022-11-11T13:05:25.976Z,16.90
2022-11-11T13:08:51.050Z,16.90
2022-11-11T13:11:46.518Z,17.00
2022-11-11T13:14:48.842Z,17.10
2022-11-11T13:17:36.373Z,17.20
2022-11-11T13:20:39.291Z,17.20
2022-11-11T13:23:26.523Z,17.20
2022-11-11T13:26:26.650Z,17.10
2022-11-11T13:29:43.973Z,16.90
2022-11-11T13:32:40.671Z,16.90
2022-11-11T13:35:33.325Z,16.90
2022-11-11T13:38:31.102Z,17.00
2022-11-11T13:41:25.474Z,17.00
2022-11-11T13:44:23.380Z,17.10
2022-11-11T13:47:19.156Z,17.10
2022-11-11T13:50:13.297Z,17.10
2022-11-11T13:53:03.299Z,16.80
2022-11-11T13:55:52.231Z,16.70
2022-11-11T13:58:41.917Z,16.60
2022-11-11T14:01:41.557Z,16.70
2022-11-11T14:04:29.207Z,16.80
2022-11-11T14:10:53.756Z,16.80
2022-11-11T14:13:42.528Z,16.70
2022-11-11T14:17:01.526Z,16.60
2022-11-11T14:19:48.633Z,16.60
2022-11-11T14:22:36.329Z,16.60
2022-11-11T14:25:27.409Z,16.70
2022-11-11T14:28:29.734Z,16.70
2022-11-11T14:31:52.708Z,16.70
2022-11-11T14:34:55.980Z,16.60
2022-11-11T14:38:02.006Z,16.30
2022-11-11T14:40:49.119Z,16.10
2022-11-11T14:43:41.511Z,16.10
2022-11-11T14:46:28.584Z,16.20
2022-11-11T14:49:48.462Z,16.30
2022-11-11T14:52:39.162Z,16.30
2022-11-11T14:55:29.916Z,16.20
2022-11-11T14:58:19.547Z,16.10
2022-11-11T15:01:15.693Z,16.10
2022-11-11T15:04:05.151Z,16.00
2022-11-11T15:06:58.574Z,16.00
2022-11-11T15:10:09.734Z,16.10
2022-11-11T15:13:30.075Z,16.00
2022-11-11T15:16:26.844Z,15.90
2022-11-11T15:19:31.200Z,15.70
2022-11-11T15:22:34.109Z,15.60
2022-11-11T15:25:32.311Z,15.70
2022-11-11T15:28:42.226Z,15.80
2022-11-11T15:31:37.199Z,15.70
2022-11-11T15:34:34.320Z,15.70
2022-11-11T15:37:23.373Z,15.40
2022-11-11T15:40:20.958Z,15.30
2022-11-11T15:43:07.810Z,15.30
2022-11-11T15:45:57.140Z,15.40
2022-11-11T15:48:46.344Z,15.30
2022-11-11T15:51:34.345Z,15.30
2022-11-11T15:54:23.292Z,15.20
2022-11-11T15:57:30.552Z,15.10
2022-11-11T16:00:33.335Z,15.00
2022-11-11T16:03:23.125Z,14.90
2022-11-11T16:06:13.815Z,14.90
2022-11-11T16:09:00.779Z,14.80
2022-11-11T16:11:47.955Z,14.70
2022-11-11T16:14:40.907Z,14.70
2022-11-11T16:17:34.066Z,14.70
2022-11-11T16:20:26.526Z,14.70
2022-11-11T16:23:18.846Z,14.60
2022-11-11T16:26:06.064Z,14.60
2022-11-11T16:28:55.093Z,14.50
2022-11-11T16:31:45.101Z,14.50
2022-11-11T16:34:45.565Z,14.50
2022-11-11T16:37:52.547Z,14.50
2022-11-11T16:40:45.151Z,14.40
2022-11-11T16:43:33.697Z,14.40
2022-11-11T16:46:41.914Z,14.50
2022-11-11T16:49:33.235Z,14.40
2022-11-11T16:52:23.420Z,14.40
2022-11-11T16:55:12.072Z,14.30
2022-11-11T16:58:02.802Z,14.20
2022-11-11T17:00:50.123Z,14.00
2022-11-11T17:03:36.960Z,13.90
2022-11-11T17:06:50.056Z,13.80
2022-11-11T17:09:41.521Z,13.70
2022-11-11T17:12:32.327Z,13.60
2022-11-11T17:15:23.011Z,13.60
2022-11-11T17:18:10.132Z,13.50
2022-11-11T17:20:57.736Z,13.50
2022-11-11T17:23:44.564Z,13.50
2022-11-11T17:26:31.487Z,13.50
2022-11-11T17:29:18.540Z,13.40
2022-11-11T17:32:07.355Z,13.30
2022-11-11T17:34:54.556Z,13.30
2022-11-11T17:37:41.858Z,13.30
2022-11-11T17:40:28.666Z,13.20
2022-11-11T17:43:16.275Z,13.20
2022-11-11T17:46:03.963Z,13.20
2022-11-11T17:48:56.540Z,13.30
2022-11-11T17:51:43.347Z,13.30
2022-11-11T17:54:30.380Z,13.30
2022-11-11T17:57:17.204Z,13.20
2022-11-11T18:00:04.317Z,13.30
2022-11-11T18:02:51.545Z,13.30
2022-11-11T18:05:39.663Z,13.30
2022-11-11T18:08:26.717Z,13.30
2022-11-11T18:11:13.640Z,13.30
2022-11-11T18:14:00.164Z,13.40
2022-11-11T18:16:47.184Z,13.40
2022-11-11T18:19:34.232Z,13.40
2022-11-11T18:22:22.432Z,13.40
2022-11-11T18:25:09.827Z,13.40
2022-11-11T18:27:56.930Z,13.40
2022-11-11T18:30:45.798Z,13.40
2022-11-11T18:33:33.235Z,13.40
2022-11-11T18:36:21.699Z,13.30
2022-11-11T18:39:10.142Z,13.20
2022-11-11T18:41:57.224Z,13.20
2022-11-11T18:44:44.282Z,13.20
2022-11-11T18:47:30.944Z,13.10
2022-11-11T18:50:18.157Z,13.10
2022-11-11T18:53:05.116Z,13.10
2022-11-11T18:55:53.088Z,13.10
2022-11-11T18:58:39.896Z,13.10
2022-11-11T19:01:29.349Z,13.10
2022-11-11T19:04:16.173Z,13.00
2022-11-11T19:07:03.166Z,13.00
2022-11-11T19:09:50.059Z,13.00
2022-11-11T19:12:38.399Z,12.90
2022-11-11T19:15:25.575Z,12.90
2022-11-11T19:18:12.585Z,12.90
2022-11-11T19:20:59.324Z,12.80
2022-11-11T19:23:47.352Z,12.80
2022-11-11T19:26:34.493Z,12.80
2022-11-11T19:29:23.061Z,12.80
2022-11-11T19:32:10.255Z,12.80
2022-11-11T19:34:57.068Z,12.90
2022-11-11T19:37:44.431Z,12.90
2022-11-11T19:40:31.163Z,13.00
2022-11-11T19:43:18.213Z,13.00
2022-11-11T19:46:08.244Z,12.90
2022-11-11T19:48:56.217Z,12.90
2022-11-11T19:51:43.320Z,13.00
2022-11-11T19:54:30.008Z,13.00
2022-11-11T19:57:16.914Z,12.90
2022-11-11T20:00:03.829Z,12.90
2022-11-11T20:02:51.882Z,12.80
2022-11-11T20:05:39.157Z,12.80
2022-11-11T20:08:26.246Z,12.80
2022-11-11T20:11:13.060Z,12.70
2022-11-11T20:14:00.086Z,12.70
2022-11-11T20:16:46.958Z,12.60
2022-11-11T20:19:35.380Z,12.60
2022-11-11T20:22:22.083Z,12.60
2022-11-11T20:25:09.175Z,12.60
2022-11-11T20:27:56.104Z,12.70
2022-11-11T20:30:43.104Z,12.70
2022-11-11T20:33:29.662Z,12.70
2022-11-11T20:36:18.429Z,12.80
2022-11-11T20:39:05.362Z,12.90
2022-11-11T20:41:52.187Z,12.80
2022-11-11T20:44:39.256Z,12.90
2022-11-11T20:47:28.958Z,12.80
2022-11-11T20:50:21.192Z,12.80
2022-11-11T20:53:10.210Z,12.80
2022-11-11T20:56:01.302Z,12.80
2022-11-11T20:58:48.740Z,12.80
2022-11-11T21:01:35.846Z,12.80
2022-11-11T21:04:23.358Z,12.80
2022-11-11T21:07:10.665Z,12.70
2022-11-11T21:09:58.964Z,12.80
2022-11-11T21:12:45.974Z,12.80
2022-11-11T21:15:32.980Z,12.80
2022-11-11T21:18:20.366Z,12.80
2022-11-11T21:21:08.323Z,12.80
2022-11-11T21:23:58.920Z,12.80
2022-11-11T21:26:49.996Z,12.80
2022-11-11T21:29:36.951Z,12.70
2022-11-11T21:32:23.723Z,12.70
2022-11-11T21:35:10.742Z,12.60
2022-11-11T21:37:57.871Z,12.60
2022-11-11T21:40:44.665Z,12.50
2022-11-11T21:43:32.861Z,12.50
2022-11-11T21:46:21.610Z,12.50
2022-11-11T21:49:08.675Z,12.50
2022-11-11T21:51:55.453Z,12.50
2022-11-11T21:54:42.300Z,12.50
2022-11-11T21:57:29.505Z,12.60
2022-11-11T22:00:19.348Z,12.60
2022-11-11T22:03:06.293Z,12.60
2022-11-11T22:05:53.231Z,12.60
2022-11-11T22:08:41.019Z,12.50
2022-11-11T22:11:31.150Z,12.50
2022-11-11T22:14:17.744Z,12.50
2022-11-11T22:17:06.208Z,12.40
2022-11-11T22:19:53.206Z,12.40
2022-11-11T22:22:40.746Z,12.30
2022-11-11T22:25:28.065Z,12.30
2022-11-11T22:28:15.144Z,12.20
2022-11-11T22:31:06.318Z,12.10
2022-11-11T22:33:57.655Z,12.10
2022-11-11T22:36:44.628Z,12.10
2022-11-11T22:39:31.536Z,12.10
2022-11-11T22:42:18.454Z,12.00
2022-11-11T22:45:05.992Z,12.00
2022-11-11T22:47:52.640Z,12.00
2022-11-11T22:50:40.578Z,11.90
2022-11-11T22:53:27.466Z,11.90
2022-11-11T22:56:15.899Z,11.80
2022-11-11T22:59:04.455Z,11.80
2022-11-11T23:01:52.021Z,11.80
2022-11-11T23:04:39.535Z,11.70
2022-11-11T23:07:27.579Z,11.70
2022-11-11T23:10:14.416Z,11.70
2022-11-11T23:13:01.369Z,11.70
2022-11-11T23:15:53.562Z,11.70
2022-11-11T23:18:40.932Z,11.70
2022-11-11T23:21:29.486Z,11.60
2022-11-11T23:24:17.835Z,11.60
2022-11-11T23:27:04.803Z,11.50
2022-11-11T23:29:52.779Z,11.50
2022-11-11T23:32:39.992Z,11.50
2022-11-11T23:35:26.950Z,11.40
2022-11-11T23:38:13.793Z,11.40
2022-11-11T23:41:02.368Z,11.30
2022-11-11T23:43:49.290Z,11.30
2022-11-11T23:46:36.450Z,11.30
2022-11-11T23:49:23.414Z,11.20
2022-11-11T23:52:10.296Z,11.20
2022-11-11T23:54:57.167Z,11.20
2022-11-11T23:57:45.525Z,11.10
